createdAt,value
2023-01-21T02:52:56.896Z,1016.00
2023-01-21T02:53:27.327Z,1016.02
2023-01-21T02:53:58.489Z,1016.03
2023-01-21T02:54:29.013Z,1016.01
2023-01-21T02:54:59.460Z,1016.01
2023-01-21T02:55:30.427Z,1016.01
2023-01-21T02:56:01.460Z,1016.02
2023-01-21T02:56:31.958Z,1016.01
2023-01-21T02:57:03.173Z,1016.01
2023-01-21T02:57:33.717Z,1016.03
2023-01-21T02:58:04.241Z,1016.04
2023-01-21T02:58:34.697Z,1016.02
2023-01-21T02:59:05.658Z,1016.03
2023-01-21T02:59:36.664Z,1016.06
2023-01-21T03:00:07.313Z,1016.05
2023-01-21T03:00:37.896Z,1016.04
2023-01-21T03:01:08.500Z,1016.03
2023-01-21T03:01:38.978Z,1016.03
2023-01-21T03:02:09.504Z,1016.04
2023-01-21T03:02:39.960Z,1016.03
2023-01-21T03:03:11.208Z,1016.04
2023-01-21T03:03:41.663Z,1016.03
2023-01-21T03:04:12.613Z,1016.04
2023-01-21T03:04:43.602Z,1016.03
2023-01-21T03:05:14.552Z,1016.03
2023-01-21T03:05:45.575Z,1016.03
2023-01-21T03:06:16.208Z,1016.05
2023-01-21T03:06:46.747Z,1016.05
2023-01-21T03:07:17.721Z,1016.04
2023-01-21T03:07:48.675Z,1016.06
2023-01-21T03:08:19.666Z,1016.06
2023-01-21T03:08:50.625Z,1016.06
2023-01-21T03:09:21.748Z,1016.05
2023-01-21T03:09:52.205Z,1016.07
2023-01-21T03:10:23.152Z,1016.07
2023-01-21T03:10:54.103Z,1016.08
2023-01-21T03:11:25.089Z,1016.07
2023-01-21T03:11:56.111Z,1016.05
2023-01-21T03:12:26.821Z,1016.03
2023-01-21T03:12:57.337Z,1016.02
2023-01-21T03:13:27.866Z,1016.02
2023-01-21T03:13:58.387Z,1016.02
2023-01-21T03:14:29.352Z,1016.02
2023-01-21T03:15:00.311Z,1016.01
2023-01-21T03:15:31.458Z,1016.02
2023-01-21T03:16:02.006Z,1016.01
2023-01-21T03:16:32.633Z,1016.02
2023-01-21T03:17:03.091Z,1016.01
2023-01-21T03:17:34.045Z,1015.99
2023-01-21T03:18:04.997Z,1015.98
2023-01-21T03:18:36.215Z,1015.98
2023-01-21T03:19:06.664Z,1015.97
2023-01-21T03:19:37.615Z,1015.98
2023-01-21T03:20:08.591Z,1015.97
2023-01-21T03:20:39.581Z,1015.97
2023-01-21T03:21:10.518Z,1015.98
2023-01-21T03:21:41.656Z,1015.97
2023-01-21T03:22:12.163Z,1015.97
2023-01-21T03:22:43.097Z,1015.96
2023-01-21T03:23:14.048Z,1015.97
2023-01-21T03:23:45.042Z,1015.96
2023-01-21T03:24:15.966Z,1015.96
2023-01-21T03:24:47.107Z,1015.96
2023-01-21T03:25:17.628Z,1015.97
2023-01-21T03:25:48.084Z,1015.96
2023-01-21T03:26:19.037Z,1015.96
2023-01-21T03:26:50.067Z,1015.95
2023-01-21T03:27:20.547Z,1015.97
2023-01-21T03:27:51.413Z,1015.96
2023-01-21T03:28:21.931Z,1015.97
2023-01-21T03:28:52.448Z,1015.97
2023-01-21T03:29:22.985Z,1015.97
2023-01-21T03:29:53.443Z,1015.96
2023-01-21T03:30:24.377Z,1015.96
2023-01-21T03:30:55.618Z,1015.95
2023-01-21T03:31:26.191Z,1015.94
2023-01-21T03:31:56.706Z,1015.95
2023-01-21T03:32:27.164Z,1015.94
2023-01-21T03:32:58.188Z,1015.94
2023-01-21T03:33:28.686Z,1015.93
2023-01-21T03:33:59.842Z,1015.92
2023-01-21T03:34:30.292Z,1015.90
2023-01-21T03:35:01.252Z,1015.90
2023-01-21T03:35:32.197Z,1015.89
2023-01-21T03:36:03.151Z,1015.91
2023-01-21T03:36:34.101Z,1015.91
2023-01-21T03:37:05.619Z,1015.92
2023-01-21T03:37:35.671Z,1015.91
2023-01-21T03:38:06.128Z,1015.92
2023-01-21T03:38:37.130Z,1015.90
2023-01-21T03:39:08.177Z,1015.91
2023-01-21T03:39:38.620Z,1015.89
2023-01-21T03:40:09.825Z,1015.90
2023-01-21T03:40:40.246Z,1015.90
2023-01-21T03:41:10.670Z,1015.89
2023-01-21T03:41:41.694Z,1015.90
2023-01-21T03:42:12.108Z,1015.88
2023-01-21T03:42:43.055Z,1015.89
2023-01-21T03:43:14.238Z,1015.87
2023-01-21T03:43:44.761Z,1015.86
2023-01-21T03:44:15.781Z,1015.89
2023-01-21T03:44:46.312Z,1015.89
2023-01-21T03:45:16.737Z,1015.87
2023-01-21T03:45:47.724Z,1015.88
2023-01-21T03:46:18.927Z,1015.89
2023-01-21T03:46:49.445Z,1015.89
2023-01-21T03:47:20.377Z,1015.92
2023-01-21T03:47:51.320Z,1015.94
2023-01-21T03:48:22.272Z,1015.94
2023-01-21T03:48:53.259Z,1015.93
2023-01-21T03:49:24.428Z,1015.95
2023-01-21T03:49:54.884Z,1015.95
2023-01-21T03:50:25.885Z,1015.96
2023-01-21T03:50:56.864Z,1015.95
2023-01-21T03:51:27.359Z,1015.94
2023-01-21T03:51:58.303Z,1015.94
2023-01-21T03:52:29.438Z,1015.96
2023-01-21T03:52:59.951Z,1015.96
2023-01-21T03:53:30.430Z,1015.98
2023-01-21T03:54:01.366Z,1015.96
2023-01-21T03:54:32.358Z,1015.96
2023-01-21T03:55:02.819Z,1015.96
2023-01-21T03:55:33.940Z,1015.96
2023-01-21T03:56:04.486Z,1015.96
2023-01-21T03:56:34.947Z,1015.97
2023-01-21T03:57:05.958Z,1015.95
2023-01-21T03:57:36.408Z,1015.93
2023-01-21T03:58:06.994Z,1015.93
2023-01-21T03:58:37.651Z,1015.93
2023-01-21T03:59:08.184Z,1015.92
2023-01-21T03:59:38.698Z,1015.92
2023-01-21T04:00:09.236Z,1015.93
2023-01-21T04:00:39.746Z,1015.93
2023-01-21T04:01:10.318Z,1015.94
2023-01-21T04:01:40.964Z,1015.92
2023-01-21T04:02:11.574Z,1015.93
2023-01-21T04:02:42.067Z,1015.91
2023-01-21T04:03:13.089Z,1015.90
2023-01-21T04:03:43.546Z,1015.90
2023-01-21T04:04:14.588Z,1015.91
2023-01-21T04:04:45.257Z,1015.93
2023-01-21T04:05:15.704Z,1015.91
2023-01-21T04:05:46.954Z,1015.92
2023-01-21T04:06:17.401Z,1015.93
2023-01-21T04:06:48.353Z,1015.93
2023-01-21T04:07:19.295Z,1015.93
2023-01-21T04:07:50.522Z,1015.92
2023-01-21T04:08:21.032Z,1015.91
2023-01-21T04:08:51.484Z,1015.93
2023-01-21T04:09:22.431Z,1015.95
2023-01-21T04:09:53.467Z,1015.93
2023-01-21T04:10:23.948Z,1015.94
2023-01-21T04:10:54.724Z,1015.94
2023-01-21T04:11:25.235Z,1015.95
2023-01-21T04:11:55.742Z,1015.98
2023-01-21T04:12:26.692Z,1015.98
2023-01-21T04:12:57.708Z,1015.98
2023-01-21T04:13:28.170Z,1015.96
2023-01-21T04:13:59.320Z,1015.97
2023-01-21T04:14:29.843Z,1015.98
2023-01-21T04:15:00.378Z,1015.99
2023-01-21T04:15:30.910Z,1015.99
2023-01-21T04:16:01.866Z,1016.00
2023-01-21T04:16:32.847Z,1016.00
2023-01-21T04:17:03.511Z,1016.00
2023-01-21T04:17:34.063Z,1016.01
2023-01-21T04:18:04.532Z,1016.01
2023-01-21T04:18:35.561Z,1015.99
2023-01-21T04:19:06.457Z,1015.98
2023-01-21T04:19:36.900Z,1016.00
2023-01-21T04:20:08.086Z,1016.01
2023-01-21T04:20:38.537Z,1016.01
2023-01-21T04:21:09.523Z,1016.01
2023-01-21T04:21:40.318Z,1016.02
2023-01-21T04:22:11.271Z,1016.04
2023-01-21T04:22:42.260Z,1016.05
2023-01-21T04:23:13.388Z,1016.04
2023-01-21T04:23:43.904Z,1016.01
2023-01-21T04:24:14.344Z,1016.02
2023-01-21T04:24:45.282Z,1016.01
2023-01-21T04:25:16.287Z,1016.02
2023-01-21T04:25:46.733Z,1016.02
2023-01-21T04:26:17.907Z,1016.03
2023-01-21T04:26:48.409Z,1016.04
2023-01-21T04:27:19.161Z,1016.03
2023-01-21T04:27:50.126Z,1016.04
2023-01-21T04:28:21.063Z,1016.08
2023-01-21T04:28:52.006Z,1016.06
2023-01-21T04:29:23.189Z,1016.10
2023-01-21T04:29:53.718Z,1016.08
2023-01-21T04:30:24.256Z,1016.08
2023-01-21T04:30:54.727Z,1016.07
2023-01-21T04:31:25.316Z,1016.05
2023-01-21T04:31:55.880Z,1016.03
2023-01-21T04:32:26.601Z,1016.04
2023-01-21T04:32:57.188Z,1016.02
2023-01-21T04:33:27.641Z,1016.01
2023-01-21T04:33:58.605Z,1016.01
2023-01-21T04:34:29.584Z,1016.00
2023-01-21T04:35:00.563Z,1016.01
2023-01-21T04:35:31.744Z,1016.02
2023-01-21T04:36:02.202Z,1016.02
2023-01-21T04:36:33.215Z,1016.02
2023-01-21T04:37:04.188Z,1016.02
2023-01-21T04:37:34.736Z,1016.03
2023-01-21T04:38:05.186Z,1016.01
2023-01-21T04:38:36.297Z,1016.02
2023-01-21T04:39:06.815Z,1016.03
2023-01-21T04:39:37.743Z,1016.03
2023-01-21T04:40:08.707Z,1016.04
2023-01-21T04:40:39.793Z,1016.04
2023-01-21T04:41:10.531Z,1016.03
2023-01-21T04:41:41.675Z,1016.06
2023-01-21T04:42:12.188Z,1016.06
2023-01-21T04:42:43.140Z,1016.06
2023-01-21T04:43:14.094Z,1016.07
2023-01-21T04:43:45.028Z,1016.07
2023-01-21T04:44:16.044Z,1016.08
2023-01-21T04:44:46.679Z,1016.06
2023-01-21T04:45:17.193Z,1016.05
2023-01-21T04:45:47.850Z,1016.06
2023-01-21T04:46:18.375Z,1016.07
2023-01-21T04:46:49.319Z,1016.05
2023-01-21T04:47:20.269Z,1016.05
2023-01-21T04:47:51.479Z,1016.04
2023-01-21T04:48:22.000Z,1016.04
2023-01-21T04:48:52.426Z,1016.08
2023-01-21T04:49:23.438Z,1016.10
2023-01-21T04:49:53.908Z,1016.10
2023-01-21T04:50:24.869Z,1016.11
2023-01-21T04:50:56.022Z,1016.13
2023-01-21T04:51:26.553Z,1016.12
2023-01-21T04:51:57.494Z,1016.14
2023-01-21T04:52:28.426Z,1016.12
2023-01-21T04:52:59.372Z,1016.14
2023-01-21T04:53:30.315Z,1016.14
2023-01-21T04:54:01.413Z,1016.12
2023-01-21T04:54:31.940Z,1016.12
2023-01-21T04:55:02.360Z,1016.14
2023-01-21T04:55:33.373Z,1016.13
2023-01-21T04:56:03.827Z,1016.12
2023-01-21T04:56:35.314Z,1016.12
2023-01-21T04:57:06.036Z,1016.15
2023-01-21T04:57:36.560Z,1016.14
2023-01-21T04:58:48.113Z,1016.13
2023-01-21T04:59:18.565Z,1016.15
2023-01-21T04:59:49.504Z,1016.15
2023-01-21T05:00:20.447Z,1016.14
2023-01-21T05:00:51.442Z,1016.15
2023-01-21T05:01:22.126Z,1016.16
2023-01-21T05:01:52.652Z,1016.15
2023-01-21T05:02:23.106Z,1016.14
2023-01-21T05:02:54.052Z,1016.15
2023-01-21T05:03:25.016Z,1016.15
2023-01-21T05:03:56.032Z,1016.16
2023-01-21T05:04:26.679Z,1016.17
2023-01-21T05:04:57.207Z,1016.16
2023-01-21T05:05:27.787Z,1016.17
2023-01-21T05:05:58.248Z,1016.17
2023-01-21T05:06:29.205Z,1016.17
2023-01-21T05:06:59.803Z,1016.18
2023-01-21T05:07:30.454Z,1016.19
2023-01-21T05:08:00.978Z,1016.18
2023-01-21T05:08:31.444Z,1016.18
2023-01-21T05:09:02.418Z,1016.19
2023-01-21T05:09:33.371Z,1016.19
2023-01-21T05:10:04.336Z,1016.19
2023-01-21T05:10:35.549Z,1016.18
2023-01-21T05:11:06.115Z,1016.16
2023-01-21T05:11:36.560Z,1016.16
2023-01-21T05:12:07.506Z,1016.15
2023-01-21T05:12:38.521Z,1016.15
2023-01-21T05:13:08.976Z,1016.16
2023-01-21T05:13:40.127Z,1016.16
2023-01-21T05:14:10.661Z,1016.17
2023-01-21T05:14:41.264Z,1016.16
2023-01-21T05:15:11.805Z,1016.17
2023-01-21T05:15:42.570Z,1016.19
2023-01-21T05:16:13.291Z,1016.18
2023-01-21T05:16:44.276Z,1016.19
2023-01-21T05:17:14.326Z,1016.18
2023-01-21T05:17:44.942Z,1016.18
2023-01-21T05:18:15.640Z,1016.16
2023-01-21T05:18:46.815Z,1016.16
2023-01-21T05:19:16.971Z,1016.18
2023-01-21T05:19:47.787Z,1016.20
2023-01-21T05:20:18.658Z,1016.23
2023-01-21T05:21:30.344Z,1016.22
2023-01-21T05:22:00.764Z,1016.26
2023-01-21T05:22:31.761Z,1016.26
2023-01-21T05:23:02.441Z,1016.26
2023-01-21T05:23:32.916Z,1016.28
2023-01-21T05:24:04.154Z,1016.28
2023-01-21T05:24:34.646Z,1016.29
2023-01-21T05:25:05.770Z,1016.28
2023-01-21T05:25:36.457Z,1016.30
2023-01-21T05:26:07.052Z,1016.28
2023-01-21T05:26:37.766Z,1016.30
2023-01-21T05:27:08.443Z,1016.30
2023-01-21T05:27:38.966Z,1016.29
2023-01-21T05:28:09.566Z,1016.28
2023-01-21T05:28:40.285Z,1016.28
2023-01-21T05:29:10.824Z,1016.29
2023-01-21T05:29:41.285Z,1016.29
2023-01-21T05:30:12.139Z,1016.26
2023-01-21T05:30:44.492Z,1016.27
2023-01-21T05:31:13.532Z,1016.25
2023-01-21T05:31:44.271Z,1016.25
2023-01-21T05:32:14.907Z,1016.25
2023-01-21T05:32:45.867Z,1016.25
2023-01-21T05:33:17.005Z,1016.24
2023-01-21T05:33:47.531Z,1016.27
2023-01-21T05:34:17.977Z,1016.26
2023-01-21T05:34:49.187Z,1016.28
2023-01-21T05:35:19.696Z,1016.28
2023-01-21T05:35:50.175Z,1016.28
2023-01-21T05:36:21.376Z,1016.30
2023-01-21T05:36:51.903Z,1016.30
2023-01-21T05:37:22.409Z,1016.31
2023-01-21T05:37:52.913Z,1016.29
2023-01-21T05:38:23.852Z,1016.30
2023-01-21T05:38:54.794Z,1016.30
2023-01-21T05:39:25.904Z,1016.29
2023-01-21T05:39:56.413Z,1016.32
2023-01-21T05:40:26.829Z,1016.33
2023-01-21T05:40:57.898Z,1016.33
2023-01-21T05:41:28.340Z,1016.35
2023-01-21T05:41:59.344Z,1016.35
2023-01-21T05:42:30.042Z,1016.35
2023-01-21T05:43:00.552Z,1016.33
2023-01-21T05:43:31.087Z,1016.34
2023-01-21T05:44:01.545Z,1016.35
2023-01-21T05:44:32.495Z,1016.35
2023-01-21T05:45:03.487Z,1016.37
2023-01-21T05:45:34.218Z,1016.36
2023-01-21T05:46:04.820Z,1016.36
2023-01-21T05:46:35.327Z,1016.38
2023-01-21T05:47:06.354Z,1016.37
2023-01-21T05:47:36.870Z,1016.37
2023-01-21T05:48:07.326Z,1016.39
2023-01-21T05:48:38.542Z,1016.38
2023-01-21T05:49:09.057Z,1016.39
2023-01-21T05:49:39.478Z,1016.40
2023-01-21T05:50:10.539Z,1016.39
2023-01-21T05:50:40.999Z,1016.38
2023-01-21T05:51:12.024Z,1016.38
2023-01-21T05:51:43.008Z,1016.37
2023-01-21T05:52:13.522Z,1016.37
2023-01-21T05:52:44.038Z,1016.38
2023-01-21T05:53:14.485Z,1016.39
2023-01-21T05:53:45.496Z,1016.39
2023-01-21T05:54:16.010Z,1016.39
2023-01-21T05:55:00.994Z,1016.38
2023-01-21T05:55:18.613Z,1016.39
2023-01-21T05:55:48.102Z,1016.38
2023-01-21T05:56:18.570Z,1016.39
2023-01-21T05:56:49.543Z,1016.39
2023-01-21T05:57:20.715Z,1016.39
2023-01-21T05:57:51.221Z,1016.39
2023-01-21T05:58:22.153Z,1016.38
2023-01-21T05:58:53.372Z,1016.39
2023-01-21T05:59:23.890Z,1016.37
2023-01-21T05:59:54.413Z,1016.39
2023-01-21T06:00:25.105Z,1016.38
2023-01-21T06:00:55.620Z,1016.38
2023-01-21T06:01:26.076Z,1016.35
2023-01-21T06:01:57.072Z,1016.37
2023-01-21T06:02:27.696Z,1016.39
2023-01-21T06:02:58.405Z,1016.39
2023-01-21T06:03:29.600Z,1016.40
2023-01-21T06:04:00.164Z,1016.39
2023-01-21T06:04:31.119Z,1016.39
2023-01-21T06:05:02.023Z,1016.39
2023-01-21T06:05:33.197Z,1016.39
2023-01-21T06:06:03.734Z,1016.40
2023-01-21T06:06:34.455Z,1016.41
2023-01-21T06:07:04.885Z,1016.44
2023-01-21T06:07:35.901Z,1016.45
2023-01-21T06:08:06.423Z,1016.44
2023-01-21T06:08:36.867Z,1016.47
2023-01-21T06:09:07.801Z,1016.45
2023-01-21T06:09:39.005Z,1016.45
2023-01-21T06:10:09.530Z,1016.45
2023-01-21T06:10:39.945Z,1016.44
2023-01-21T06:11:10.884Z,1016.43
2023-01-21T06:11:41.906Z,1016.44
2023-01-21T06:12:12.342Z,1016.45
2023-01-21T06:12:43.508Z,1016.44
2023-01-21T06:13:14.040Z,1016.42
2023-01-21T06:13:44.487Z,1016.44
2023-01-21T06:14:15.423Z,1016.43
2023-01-21T06:14:46.360Z,1016.46
2023-01-21T06:15:17.315Z,1016.45
2023-01-21T06:15:48.560Z,1016.45
2023-01-21T06:16:19.099Z,1016.46
2023-01-21T06:16:49.625Z,1016.46
2023-01-21T06:17:20.078Z,1016.48
2023-01-21T06:17:50.994Z,1016.46
2023-01-21T06:18:21.939Z,1016.46
2023-01-21T06:18:53.143Z,1016.47
2023-01-21T06:19:23.652Z,1016.49
2023-01-21T06:19:54.120Z,1016.49
2023-01-21T06:20:25.050Z,1016.49
2023-01-21T06:20:55.999Z,1016.48
2023-01-21T06:21:26.946Z,1016.48
2023-01-21T06:21:58.137Z,1016.49
2023-01-21T06:22:28.584Z,1016.48
2023-01-21T06:22:59.599Z,1016.51
2023-01-21T06:23:30.045Z,1016.49
2023-01-21T06:24:01.092Z,1016.51
2023-01-21T06:24:31.556Z,1016.50
2023-01-21T06:25:02.753Z,1016.50
2023-01-21T06:25:33.296Z,1016.49
2023-01-21T06:26:03.823Z,1016.47
2023-01-21T06:26:34.344Z,1016.48
2023-01-21T06:27:04.883Z,1016.47
2023-01-21T06:27:35.384Z,1016.49
2023-01-21T06:28:06.559Z,1016.48
2023-01-21T06:28:37.081Z,1016.48
2023-01-21T06:29:07.602Z,1016.48
2023-01-21T06:29:38.050Z,1016.48
2023-01-21T06:30:08.948Z,1016.48
2023-01-21T06:30:39.982Z,1016.47
2023-01-21T06:31:10.688Z,1016.48
2023-01-21T06:31:41.458Z,1016.48
2023-01-21T06:32:12.133Z,1016.48
2023-01-21T06:32:42.587Z,1016.49
2023-01-21T06:33:13.548Z,1016.50
2023-01-21T06:33:44.599Z,1016.49
2023-01-21T06:34:15.247Z,1016.50
2023-01-21T06:34:46.779Z,1016.52
2023-01-21T06:35:16.305Z,1016.54
2023-01-21T06:35:47.231Z,1016.52
2023-01-21T06:36:18.182Z,1016.55
2023-01-21T06:36:49.123Z,1016.53
2023-01-21T06:37:20.299Z,1016.54
2023-01-21T06:37:50.734Z,1016.53
2023-01-21T06:38:21.699Z,1016.54
2023-01-21T06:38:52.840Z,1016.54
2023-01-21T06:39:23.365Z,1016.55
2023-01-21T06:39:53.836Z,1016.54
2023-01-21T06:40:24.969Z,1016.59
2023-01-21T06:40:55.480Z,1016.59
2023-01-21T06:41:26.348Z,1016.60
2023-01-21T06:41:57.335Z,1016.60
2023-01-21T06:42:27.793Z,1016.61
2023-01-21T06:42:58.788Z,1016.63
2023-01-21T06:43:29.932Z,1016.62
2023-01-21T06:44:00.409Z,1016.63
2023-01-21T06:44:30.929Z,1016.63
2023-01-21T06:45:01.894Z,1016.62
2023-01-21T06:45:32.869Z,1016.62
2023-01-21T06:46:03.822Z,1016.63
2023-01-21T06:46:34.994Z,1016.62
2023-01-21T06:47:05.518Z,1016.63
2023-01-21T06:47:36.020Z,1016.62
2023-01-21T06:48:06.998Z,1016.63
2023-01-21T06:48:37.878Z,1016.60
2023-01-21T06:49:08.748Z,1016.62
2023-01-21T06:49:39.914Z,1016.61
2023-01-21T06:50:10.368Z,1016.61
2023-01-21T06:50:41.282Z,1016.63
2023-01-21T06:51:12.215Z,1016.63
2023-01-21T06:51:43.176Z,1016.64
2023-01-21T06:52:14.079Z,1016.61
2023-01-21T06:52:45.194Z,1016.63
2023-01-21T06:53:15.591Z,1016.63
2023-01-21T06:53:46.636Z,1016.63
2023-01-21T06:54:17.270Z,1016.62
2023-01-21T06:54:47.791Z,1016.58
2023-01-21T06:55:18.419Z,1016.60
2023-01-21T06:55:49.098Z,1016.60
2023-01-21T06:56:19.653Z,1016.61
2023-01-21T06:56:50.290Z,1016.63
2023-01-21T06:57:20.712Z,1016.64
2023-01-21T06:57:51.784Z,1016.63
2023-01-21T06:58:22.162Z,1016.63
2023-01-21T06:58:53.463Z,1016.66
2023-01-21T06:59:23.938Z,1016.67
2023-01-21T07:00:35.848Z,1016.65
2023-01-21T07:01:06.930Z,1016.65
2023-01-21T07:01:37.392Z,1016.64
2023-01-21T07:02:08.579Z,1016.62
2023-01-21T07:02:39.220Z,1016.64
2023-01-21T07:03:50.725Z,1016.64
2023-01-21T07:04:21.216Z,1016.65
2023-01-21T07:04:52.286Z,1016.66
2023-01-21T07:05:22.936Z,1016.66
2023-01-21T07:05:53.673Z,1016.64
2023-01-21T07:06:24.121Z,1016.65
2023-01-21T07:06:55.162Z,1016.65
2023-01-21T07:07:26.027Z,1016.64
2023-01-21T07:07:56.639Z,1016.67
2023-01-21T07:08:27.274Z,1016.67
2023-01-21T07:08:57.898Z,1016.67
2023-01-21T07:09:28.337Z,1016.69
2023-01-21T07:09:59.253Z,1016.68
2023-01-21T07:10:30.631Z,1016.70
2023-01-21T07:11:01.254Z,1016.73
2023-01-21T07:11:31.627Z,1016.72
2023-01-21T07:12:44.479Z,1016.78
2023-01-21T07:13:14.182Z,1016.76
2023-01-21T07:13:44.595Z,1016.77
2023-01-21T07:14:15.725Z,1016.75
2023-01-21T07:14:46.164Z,1016.77
2023-01-21T07:15:17.545Z,1016.78
2023-01-21T07:15:47.855Z,1016.78
2023-01-21T07:16:18.425Z,1016.77
2023-01-21T07:16:48.932Z,1016.78
2023-01-21T07:17:19.821Z,1016.80
2023-01-21T07:17:50.811Z,1016.81
2023-01-21T07:18:21.291Z,1016.82
2023-01-21T07:18:52.407Z,1016.83
2023-01-21T07:19:22.866Z,1016.85
2023-01-21T07:19:53.753Z,1016.86
2023-01-21T07:20:24.695Z,1016.84
2023-01-21T07:20:55.590Z,1016.85
2023-01-21T07:21:26.547Z,1016.85
2023-01-21T07:21:57.647Z,1016.85
2023-01-21T07:22:28.133Z,1016.87
2023-01-21T07:22:58.989Z,1016.87
2023-01-21T07:24:10.898Z,1016.90
2023-01-21T07:24:41.859Z,1016.89
2023-01-21T07:25:12.379Z,1016.88
2023-01-21T07:25:43.304Z,1016.89
2023-01-21T07:26:14.191Z,1016.89
2023-01-21T07:26:45.322Z,1016.89
2023-01-21T07:27:15.764Z,1016.88
2023-01-21T07:27:46.732Z,1016.89
2023-01-21T07:28:17.698Z,1016.90
2023-01-21T07:28:48.604Z,1016.92
2023-01-21T07:29:19.541Z,1016.95
2023-01-21T07:29:50.617Z,1016.93
2023-01-21T07:30:21.083Z,1016.96
2023-01-21T07:30:52.037Z,1016.94
2023-01-21T07:31:23.182Z,1016.94
2023-01-21T07:31:53.772Z,1016.95
2023-01-21T07:32:24.197Z,1016.94
2023-01-21T07:32:55.321Z,1016.91
2023-01-21T07:33:25.800Z,1016.91
2023-01-21T07:33:56.742Z,1016.95
2023-01-21T07:34:27.725Z,1016.95
2023-01-21T07:34:58.664Z,1016.98
2023-01-21T07:35:29.549Z,1016.97
2023-01-21T07:36:00.676Z,1016.97
2023-01-21T07:36:31.150Z,1016.98
2023-01-21T07:37:02.112Z,1016.95
2023-01-21T07:37:32.989Z,1016.96
2023-01-21T07:38:03.916Z,1016.95
2023-01-21T07:38:34.798Z,1016.94
2023-01-21T07:39:05.943Z,1016.93
2023-01-21T07:39:36.433Z,1016.92
2023-01-21T07:40:07.619Z,1016.92
2023-01-21T07:40:38.720Z,1016.94
2023-01-21T07:41:08.831Z,1016.92
2023-01-21T07:41:39.319Z,1016.94
2023-01-21T07:42:10.567Z,1016.95
2023-01-21T07:42:41.037Z,1016.94
2023-01-21T07:43:12.163Z,1016.96
2023-01-21T07:43:42.785Z,1016.92
2023-01-21T07:44:13.217Z,1016.92
2023-01-21T07:45:28.202Z,1016.93
2023-01-21T07:46:00.157Z,1016.93
2023-01-21T07:46:29.596Z,1016.91
2023-01-21T07:47:00.218Z,1016.91
2023-01-21T07:47:30.667Z,1016.93
2023-01-21T07:48:42.617Z,1016.90
2023-01-21T07:49:13.512Z,1016.91
2023-01-21T07:49:44.130Z,1016.90
2023-01-21T07:50:14.988Z,1016.89
2023-01-21T07:50:45.988Z,1016.90
2023-01-21T07:51:16.720Z,1016.91
2023-01-21T07:51:47.224Z,1016.91
2023-01-21T07:52:18.063Z,1016.89
2023-01-21T07:52:48.961Z,1016.90
2023-01-21T07:53:19.857Z,1016.90
2023-01-21T07:53:50.758Z,1016.91
2023-01-21T07:54:21.628Z,1016.89
2023-01-21T07:54:52.557Z,1016.90
2023-01-21T07:55:23.438Z,1016.90
2023-01-21T07:55:54.338Z,1016.89
2023-01-21T07:56:25.427Z,1016.89
2023-01-21T07:56:55.891Z,1016.89
2023-01-21T07:57:26.850Z,1016.89
2023-01-21T07:58:38.795Z,1016.94
2023-01-21T07:59:09.776Z,1016.94
2023-01-21T07:59:40.680Z,1016.96
2023-01-21T08:00:11.650Z,1016.96
2023-01-21T08:00:42.650Z,1016.97
2023-01-21T08:01:13.759Z,1016.97
2023-01-21T08:01:44.463Z,1016.95
2023-01-21T08:02:15.248Z,1016.96
2023-01-21T08:02:45.948Z,1016.98
2023-01-21T08:03:16.527Z,1016.97
2023-01-21T08:03:46.990Z,1016.95
2023-01-21T08:05:01.934Z,1016.92
2023-01-21T08:05:32.402Z,1016.94
2023-01-21T08:06:03.397Z,1016.94
2023-01-21T08:06:34.359Z,1016.92
2023-01-21T08:07:05.249Z,1016.92
2023-01-21T08:07:36.399Z,1016.93
2023-01-21T08:08:07.079Z,1016.95
2023-01-21T08:08:37.531Z,1016.96
2023-01-21T08:09:08.635Z,1016.97
2023-01-21T08:09:39.362Z,1016.96
2023-01-21T08:10:09.925Z,1016.93
2023-01-21T08:10:40.615Z,1016.94
2023-01-21T08:11:11.187Z,1016.96
2023-01-21T08:11:41.793Z,1016.95
2023-01-21T08:12:12.260Z,1016.93
2023-01-21T08:12:43.324Z,1016.94
2023-01-21T08:13:13.927Z,1016.95
2023-01-21T08:13:44.608Z,1016.95
2023-01-21T08:14:15.164Z,1016.97
2023-01-21T08:14:45.798Z,1016.97
2023-01-21T08:15:16.683Z,1016.98
2023-01-21T08:15:47.000Z,1016.99
2023-01-21T08:16:17.656Z,1017.02
2023-01-21T08:16:48.505Z,1017.01
2023-01-21T08:17:19.139Z,1017.00
2023-01-21T08:17:49.742Z,1017.01
2023-01-21T08:18:20.281Z,1017.02
2023-01-21T08:18:50.913Z,1017.03
2023-01-21T08:19:21.389Z,1017.05
2023-01-21T08:19:52.190Z,1017.04
2023-01-21T08:20:22.584Z,1017.02
2023-01-21T08:20:53.564Z,1017.02
2023-01-21T08:21:24.648Z,1017.02
2023-01-21T08:21:55.280Z,1017.03
2023-01-21T08:22:26.169Z,1017.01
2023-01-21T08:22:56.990Z,1017.04
2023-01-21T08:23:27.437Z,1017.06
2023-01-21T08:23:58.762Z,1017.05
2023-01-21T08:24:29.211Z,1017.05
2023-01-21T08:25:00.371Z,1017.06
2023-01-21T08:25:30.942Z,1017.08
2023-01-21T08:26:01.630Z,1017.11
2023-01-21T08:26:32.086Z,1017.12
2023-01-21T08:27:03.006Z,1017.11
2023-01-21T08:27:33.976Z,1017.08
2023-01-21T08:28:04.973Z,1017.11
2023-01-21T08:28:35.434Z,1017.10
2023-01-21T08:29:06.527Z,1017.11
2023-01-21T08:29:36.999Z,1017.13
2023-01-21T08:30:07.981Z,1017.14
2023-01-21T08:30:38.987Z,1017.16
2023-01-21T08:31:09.531Z,1017.16
2023-01-21T08:31:40.391Z,1017.16
2023-01-21T08:32:11.235Z,1017.16
2023-01-21T08:32:41.700Z,1017.19
2023-01-21T08:33:12.665Z,1017.20
2023-01-21T08:33:43.594Z,1017.21
2023-01-21T08:34:14.509Z,1017.21
2023-01-21T08:34:45.404Z,1017.20
2023-01-21T08:35:17.004Z,1017.23
2023-01-21T08:35:47.117Z,1017.24
2023-01-21T08:36:17.995Z,1017.25
2023-01-21T08:36:48.944Z,1017.25
2023-01-21T08:37:19.925Z,1017.23
2023-01-21T08:37:50.900Z,1017.23
2023-01-21T08:38:22.107Z,1017.24
2023-01-21T08:38:52.563Z,1017.24
2023-01-21T08:39:23.470Z,1017.27
2023-01-21T08:39:54.459Z,1017.27
2023-01-21T08:40:25.432Z,1017.28
2023-01-21T08:40:56.390Z,1017.27
2023-01-21T08:41:27.491Z,1017.24
2023-01-21T08:41:57.967Z,1017.28
2023-01-21T08:42:28.925Z,1017.26
2023-01-21T08:42:59.843Z,1017.25
2023-01-21T08:43:30.699Z,1017.26
2023-01-21T08:44:01.765Z,1017.28
2023-01-21T08:44:32.431Z,1017.27
2023-01-21T08:45:02.940Z,1017.27
2023-01-21T08:45:33.481Z,1017.28
2023-01-21T08:46:04.028Z,1017.25
2023-01-21T08:46:34.495Z,1017.26
2023-01-21T08:47:05.392Z,1017.24
2023-01-21T08:47:36.569Z,1017.24
2023-01-21T08:48:07.014Z,1017.23
2023-01-21T08:48:37.928Z,1017.23
2023-01-21T08:49:08.836Z,1017.25
2023-01-21T08:49:39.755Z,1017.28
2023-01-21T08:50:10.262Z,1017.28
2023-01-21T08:50:41.455Z,1017.27
2023-01-21T08:51:11.920Z,1017.30
2023-01-21T08:51:42.845Z,1017.27
2023-01-21T08:52:13.733Z,1017.30
2023-01-21T08:52:44.616Z,1017.28
2023-01-21T08:53:15.519Z,1017.26
2023-01-21T08:53:46.671Z,1017.27
2023-01-21T08:54:17.128Z,1017.27
2023-01-21T08:54:50.544Z,1017.26
2023-01-21T08:55:18.972Z,1017.27
2023-01-21T08:55:49.615Z,1017.28
2023-01-21T08:56:20.529Z,1017.30
2023-01-21T08:56:51.611Z,1017.30
2023-01-21T08:57:22.216Z,1017.29
2023-01-21T08:57:52.774Z,1017.31
2023-01-21T13:55:11.765Z,1016.74
2023-01-21T13:55:42.202Z,1016.72
2023-01-21T13:56:13.327Z,1016.73
2023-01-21T13:56:43.825Z,1016.74
2023-01-21T13:57:14.312Z,1016.75
2023-01-21T13:57:45.281Z,1016.78
2023-01-21T13:58:16.277Z,1016.77
2023-01-21T13:58:47.271Z,1016.79
2023-01-21T13:59:18.371Z,1016.79
2023-01-21T13:59:48.864Z,1016.79
2023-01-21T14:00:19.981Z,1016.79
2023-01-21T14:00:50.509Z,1016.79
2023-01-21T14:01:21.332Z,1016.80
2023-01-21T14:01:51.927Z,1016.81
2023-01-21T14:02:22.652Z,1016.80
2023-01-21T14:02:53.159Z,1016.78
2023-01-21T14:03:24.138Z,1016.82
2023-01-21T14:03:55.109Z,1016.82
2023-01-21T14:04:26.025Z,1016.81
2023-01-21T14:04:56.935Z,1016.80
2023-01-21T14:05:28.118Z,1016.80
2023-01-21T14:05:58.600Z,1016.83
2023-01-21T14:06:29.532Z,1016.84
2023-01-21T14:07:00.545Z,1016.83
2023-01-21T14:07:31.492Z,1016.84
2023-01-21T14:08:02.414Z,1016.86
2023-01-21T14:08:33.529Z,1016.86